Time;durP1;ratioP1;P1;durP2;ratioP2;P2;SDS_P1;SDS_P2;PMS_P1;PMS_P2;Temp;Humidity;BMP_temperature;BMP_pressure;BME280_temperature;BME280_humidity;BME280_pressure;Samples;Min_cycle;Max_cycle;Signal;HPM_P1;HPM_P2
2023/06/21 00:02:21;;;;;;;10.43;9.43;;;25.10;68.00;;;;;;5005982;28;20524;-66
2023/06/21 00:04:46;;;;;;;10.27;9.30;;;25.10;68.00;;;;;;5003629;28;20648;-63
2023/06/21 00:07:12;;;;;;;11.00;10.00;;;25.10;68.20;;;;;;5004121;28;20038;-65
2023/06/21 00:09:37;;;;;;;10.38;9.38;;;25.10;67.80;;;;;;5000110;28;20440;-66
2023/06/21 00:12:03;;;;;;;9.88;9.00;;;25.10;67.70;;;;;;5004001;28;20045;-66
2023/06/21 00:14:28;;;;;;;10.02;9.13;;;25.10;67.80;;;;;;5003120;28;20064;-67
2023/06/21 00:16:54;;;;;;;10.70;9.50;;;25.10;67.70;;;;;;5004671;28;20034;-63
2023/06/21 00:19:20;;;;;;;11.00;9.45;;;25.10;67.60;;;;;;4998531;28;20045;-64
2023/06/21 00:21:45;;;;;;;10.13;9.23;;;25.10;67.60;;;;;;5003613;28;20349;-63
2023/06/21 00:24:11;;;;;;;9.73;8.93;;;25.10;67.80;;;;;;5003645;28;20073;-61
2023/06/21 00:26:36;;;;;;;9.75;8.85;;;25.10;68.00;;;;;;5001746;28;20041;-67
2023/06/21 00:29:02;;;;;;;10.32;9.43;;;25.10;68.20;;;;;;5003420;28;20520;-64
2023/06/21 00:31:27;;;;;;;9.85;8.82;;;25.10;67.60;;;;;;5004481;28;20038;-64
2023/06/21 00:33:53;;;;;;;9.98;8.98;;;25.10;67.50;;;;;;5003904;28;20033;-67
2023/06/21 00:36:18;;;;;;;9.20;8.40;;;25.10;67.60;;;;;;5000534;28;20087;-66
2023/06/21 00:38:44;;;;;;;9.45;8.55;;;25.10;67.60;;;;;;4994640;28;20195;-65
2023/06/21 00:41:09;;;;;;;9.23;8.32;;;25.10;67.50;;;;;;5003164;28;20063;-66
2023/06/21 00:43:35;;;;;;;8.95;8.13;;;25.10;67.60;;;;;;5003690;28;20034;-65
2023/06/21 00:46:01;;;;;;;9.73;8.82;;;25.10;67.30;;;;;;5002149;28;20719;-65
2023/06/21 00:48:28;;;;;;;9.23;8.32;;;25.10;67.60;;;;;;5007399;28;20475;-64
2023/06/21 00:50:58;;;;;;;8.48;7.68;;;25.10;67.60;;;;;;5001198;28;20030;-66
2023/06/21 00:53:26;;;;;;;8.93;8.13;;;25.10;67.50;;;;;;5000617;28;20448;-66
2023/06/21 00:55:52;;;;;;;9.57;8.68;;;25.10;67.60;;;;;;5001463;28;20041;-66
2023/06/21 00:58:20;;;;;;;9.32;7.65;;;25.10;67.50;;;;;;4996023;28;20033;-66
2023/06/21 01:00:47;;;;;;;7.97;7.28;;;25.10;67.40;;;;;;5003344;28;20096;-66
2023/06/21 01:03:13;;;;;;;8.73;7.35;;;25.10;67.50;;;;;;5003992;28;20088;-66
2023/06/21 01:05:39;;;;;;;8.32;7.63;;;25.10;67.50;;;;;;5000066;28;20042;-65
2023/06/21 01:08:27;;;;;;;8.90;8.10;;;25.10;67.60;;;;;;5002478;28;20507;-66
2023/06/21 01:11:27;;;;;;;7.82;7.13;;;25.10;67.60;;;;;;5003290;28;20053;-66
2023/06/21 01:14:23;;;;;;;8.77;7.95;;;25.10;67.50;;;;;;5003074;28;20030;-65
2023/06/21 01:16:50;;;;;;;8.82;7.93;;;25.10;67.50;;;;;;4996495;28;20121;-66
2023/06/21 01:19:33;;;;;;;7.97;7.28;;;25.10;67.50;;;;;;5001834;28;20060;-66
2023/06/21 01:22:07;;;;;;;8.30;7.55;;;25.10;67.60;;;;;;4999027;28;20026;-66
2023/06/21 01:25:11;;;;;;;8.40;7.70;;;25.10;67.70;;;;;;5001984;28;20030;-65
2023/06/21 01:27:48;;;;;;;9.00;7.68;;;25.10;67.70;;;;;;5000103;28;20040;-66
2023/06/21 01:30:16;;;;;;;8.40;6.60;;;25.10;67.60;;;;;;5003393;28;20096;-66
2023/06/21 01:32:42;;;;;;;7.93;7.22;;;25.10;67.40;;;;;;5004197;28;20070;-66
2023/06/21 01:35:09;;;;;;;7.47;6.78;;;25.10;68.20;;;;;;5005530;28;20329;-66
2023/06/21 01:37:34;;;;;;;7.15;6.45;;;25.10;67.60;;;;;;5002200;28;20096;-66
2023/06/21 01:40:00;;;;;;;7.30;6.70;;;25.10;67.60;;;;;;5002447;28;20029;-66
2023/06/21 01:42:25;;;;;;;7.85;7.15;;;25.10;67.50;;;;;;5005165;28;20046;-67
2023/06/21 01:44:51;;;;;;;7.28;6.18;;;25.10;67.40;;;;;;5004261;28;20780;-66
2023/06/21 01:47:18;;;;;;;7.13;6.03;;;25.10;67.50;;;;;;5004311;28;20463;-66
2023/06/21 01:49:44;;;;;;;6.88;5.90;;;25.00;67.50;;;;;;5004619;28;20037;-66
2023/06/21 01:52:10;;;;;;;11.65;6.80;;;25.10;67.40;;;;;;5006689;28;20480;-66
2023/06/21 01:54:41;;;;;;;6.38;5.85;;;25.10;67.50;;;;;;5004710;28;20034;-67
2023/06/21 01:57:08;;;;;;;6.95;5.50;;;25.00;67.60;;;;;;5006972;28;20045;-65
2023/06/21 01:59:34;;;;;;;7.22;6.53;;;25.00;67.30;;;;;;5006085;28;20405;-66
2023/06/21 02:02:03;;;;;;;6.22;5.63;;;25.00;67.50;;;;;;5005445;28;20038;-66
2023/06/21 02:04:30;;;;;;;6.90;6.20;;;25.00;67.20;;;;;;5006581;28;20034;-66
2023/06/21 02:06:56;;;;;;;8.07;5.95;;;25.00;67.30;;;;;;5005844;28;20030;-67
2023/06/21 02:09:23;;;;;;;6.32;5.80;;;25.00;67.20;;;;;;5005013;28;20034;-65
2023/06/21 02:11:49;;;;;;;6.63;6.03;;;25.00;67.20;;;;;;5006875;28;20554;-67
2023/06/21 02:14:15;;;;;;;5.57;5.13;;;25.10;67.30;;;;;;5004089;28;20510;-65
2023/06/21 02:16:41;;;;;;;6.80;5.50;;;25.10;67.30;;;;;;5001541;28;20137;-66
2023/06/21 02:19:07;;;;;;;5.65;5.15;;;25.10;67.30;;;;;;5008034;28;20080;-67
2023/06/21 02:21:32;;;;;;;6.43;5.82;;;25.10;67.20;;;;;;5006495;28;20038;-64
2023/06/21 02:23:58;;;;;;;6.20;5.65;;;25.00;67.30;;;;;;5004930;28;20030;-66
2023/06/21 02:26:23;;;;;;;6.40;5.70;;;25.00;67.00;;;;;;5006833;28;20049;-65
2023/06/21 02:28:49;;;;;;;5.45;5.00;;;25.00;67.20;;;;;;5005782;28;20034;-66
2023/06/21 02:31:14;;;;;;;5.90;5.40;;;25.00;66.90;;;;;;5006351;28;20246;-65
2023/06/21 02:33:44;;;;;;;6.22;4.82;;;25.10;67.00;;;;;;5003699;28;20026;-66
2023/06/21 02:36:10;;;;;;;5.72;5.10;;;25.00;67.00;;;;;;5004928;28;20216;-66
2023/06/21 02:38:35;;;;;;;5.60;5.03;;;25.00;67.20;;;;;;5005307;28;20113;-67
2023/06/21 02:41:01;;;;;;;5.65;5.15;;;25.00;67.10;;;;;;5005050;28;20034;-66
2023/06/21 02:43:26;;;;;;;5.25;4.75;;;25.10;67.20;;;;;;5001416;28;20119;-66
2023/06/21 02:45:53;;;;;;;4.72;4.32;;;25.10;67.20;;;;;;5002353;28;20046;-66
2023/06/21 02:48:18;;;;;;;5.35;4.88;;;25.00;67.10;;;;;;5004081;28;20067;-66
2023/06/21 02:50:44;;;;;;;5.35;4.40;;;25.00;67.00;;;;;;5002502;28;20432;-66
2023/06/21 02:53:09;;;;;;;4.95;4.50;;;25.00;67.70;;;;;;5005256;28;20037;-66
2023/06/21 02:55:35;;;;;;;5.47;4.97;;;25.00;67.00;;;;;;5004752;28;20535;-65
2023/06/21 02:58:00;;;;;;;5.13;4.30;;;25.00;67.00;;;;;;5005420;28;20262;-65
2023/06/21 03:00:31;;;;;;;4.35;3.95;;;25.00;67.00;;;;;;5005043;28;20521;-65
2023/06/21 03:02:59;;;;;;;4.93;4.53;;;25.00;67.00;;;;;;5005270;28;20044;-65
2023/06/21 03:05:26;;;;;;;4.40;4.00;;;25.10;67.10;;;;;;5004595;28;20120;-66
2023/06/21 03:07:52;;;;;;;4.85;4.38;;;25.00;67.00;;;;;;5004658;28;20038;-66
2023/06/21 03:10:19;;;;;;;4.93;3.95;;;25.00;67.00;;;;;;5002256;28;20034;-65
2023/06/21 03:12:45;;;;;;;4.40;4.00;;;25.00;67.00;;;;;;5003570;28;20172;-65
2023/06/21 03:15:11;;;;;;;4.70;4.30;;;25.10;67.00;;;;;;5005428;28;20554;-65
2023/06/21 03:17:37;;;;;;;4.85;3.90;;;25.00;67.00;;;;;;5003112;28;20794;-66
2023/06/21 03:20:13;;;;;;;3.47;3.17;;;25.00;66.90;;;;;;5004247;28;20057;-65
2023/06/21 03:22:46;;;;;;;4.63;4.15;;;25.00;67.10;;;;;;5001872;28;20030;-65
2023/06/21 03:25:13;;;;;;;4.10;3.67;;;25.00;66.50;;;;;;5005265;28;20586;-65
2023/06/21 03:27:39;;;;;;;5.05;3.78;;;25.00;66.90;;;;;;5004235;28;20046;-65
2023/06/21 03:30:06;;;;;;;4.55;3.72;;;25.00;66.70;;;;;;5003744;28;20026;-66
2023/06/21 03:32:32;;;;;;;3.80;3.50;;;25.00;66.80;;;;;;5001475;28;20053;-64
2023/06/21 03:34:58;;;;;;;4.28;3.70;;;25.00;66.80;;;;;;5004793;28;20041;-66
2023/06/21 03:37:25;;;;;;;3.80;3.50;;;25.00;66.70;;;;;;5000471;28;20518;-61
2023/06/21 03:39:50;;;;;;;3.50;3.13;;;25.00;66.90;;;;;;5003996;28;20060;-65
2023/06/21 03:42:16;;;;;;;4.75;3.42;;;25.00;66.60;;;;;;5001663;28;20057;-66
2023/06/21 03:44:41;;;;;;;3.60;3.17;;;25.00;66.70;;;;;;5002575;28;20040;-62
2023/06/21 03:47:07;;;;;;;3.67;3.38;;;25.00;66.50;;;;;;5002949;28;20065;-64
2023/06/21 03:49:32;;;;;;;3.90;3.10;;;25.00;66.40;;;;;;5004512;28;20030;-65
2023/06/21 03:51:58;;;;;;;4.82;3.15;;;25.00;66.50;;;;;;4999676;28;20042;-65
2023/06/21 03:54:23;;;;;;;3.95;3.30;;;25.00;66.40;;;;;;5004169;28;20037;-65
2023/06/21 03:56:49;;;;;;;4.90;3.58;;;25.00;66.40;;;;;;5003811;28;20034;-61
2023/06/21 03:59:14;;;;;;;3.60;3.28;;;25.10;66.50;;;;;;5004311;28;20049;-65
2023/06/21 04:01:40;;;;;;;3.85;3.45;;;25.00;66.40;;;;;;5001804;28;20084;-64
2023/06/21 04:04:05;;;;;;;3.90;3.50;;;25.00;66.00;;;;;;5004289;28;20075;-64
2023/06/21 04:06:30;;;;;;;4.10;2.72;;;25.00;66.30;;;;;;4999603;28;20124;-64
2023/06/21 04:08:57;;;;;;;4.60;3.67;;;25.10;66.50;;;;;;5001334;28;20029;-61
2023/06/21 04:11:22;;;;;;;3.15;2.80;;;25.00;66.30;;;;;;4999462;28;20058;-65
2023/06/21 04:13:48;;;;;;;3.10;2.80;;;25.00;66.50;;;;;;5001877;28;20057;-65
2023/06/21 04:16:14;;;;;;;3.70;2.85;;;25.00;66.40;;;;;;5004096;28;20100;-65
2023/06/21 04:18:51;;;;;;;5.38;3.30;;;25.00;66.30;;;;;;5002602;28;20030;-65
2023/06/21 04:21:17;;;;;;;2.92;2.63;;;25.00;66.40;;;;;;5002865;28;20037;-65
2023/06/21 04:23:42;;;;;;;2.80;2.60;;;25.00;66.50;;;;;;5002665;28;20354;-66
2023/06/21 04:26:08;;;;;;;3.20;2.90;;;25.00;66.40;;;;;;5002987;28;20029;-65
2023/06/21 04:28:34;;;;;;;4.75;3.40;;;25.00;66.40;;;;;;5002747;28;20033;-65
2023/06/21 04:31:00;;;;;;;2.80;2.60;;;25.00;66.40;;;;;;5003981;28;20120;-65
2023/06/21 04:33:29;;;;;;;4.35;3.03;;;25.10;66.40;;;;;;5003640;28;20121;-65
2023/06/21 04:35:54;;;;;;;3.65;2.67;;;25.00;66.50;;;;;;5001999;28;20050;-65
2023/06/21 04:38:20;;;;;;;3.25;2.95;;;25.10;66.30;;;;;;5002560;28;20038;-65
2023/06/21 04:40:45;;;;;;;5.22;2.78;;;25.10;66.30;;;;;;5004414;28;20397;-62
2023/06/21 04:43:11;;;;;;;4.97;2.70;;;25.10;66.20;;;;;;5004321;28;20069;-62
2023/06/21 04:45:36;;;;;;;3.72;2.72;;;25.10;66.30;;;;;;5002854;28;20061;-61
2023/06/21 04:48:04;;;;;;;3.45;2.88;;;25.10;66.10;;;;;;5001496;28;21000;-65
2023/06/21 04:50:30;;;;;;;4.63;2.42;;;25.10;66.00;;;;;;5003455;28;20528;-66
2023/06/21 04:52:59;;;;;;;4.13;3.42;;;25.10;65.90;;;;;;5004103;28;20046;-66
2023/06/21 04:55:25;;;;;;;3.00;2.70;;;25.20;65.80;;;;;;5003074;28;20026;-66
2023/06/21 04:57:50;;;;;;;3.03;2.47;;;25.20;66.00;;;;;;5003290;28;20407;-66
2023/06/21 05:00:18;;;;;;;2.97;2.63;;;25.20;66.00;;;;;;5001916;28;20117;-66
2023/06/21 05:02:43;;;;;;;3.08;2.78;;;25.20;66.10;;;;;;5001734;28;20034;-66
2023/06/21 05:05:09;;;;;;;3.65;2.50;;;25.20;66.00;;;;;;4999362;28;20083;-65
2023/06/21 05:07:37;;;;;;;4.60;3.00;;;25.20;66.00;;;;;;4998801;28;20088;-65
2023/06/21 05:10:04;;;;;;;3.55;3.25;;;25.20;66.00;;;;;;5001209;28;20109;-66
2023/06/21 05:12:30;;;;;;;2.72;2.47;;;25.20;66.00;;;;;;5014736;28;20080;-66
2023/06/21 05:14:55;;;;;;;4.70;2.63;;;25.20;65.90;;;;;;5001361;28;20034;-67
2023/06/21 05:17:21;;;;;;;4.72;3.30;;;25.20;65.90;;;;;;5002904;28;20504;-66
2023/06/21 05:19:46;;;;;;;3.00;2.75;;;25.20;66.00;;;;;;5001679;28;20033;-66
2023/06/21 05:22:12;;;;;;;3.88;3.45;;;25.20;66.00;;;;;;5003867;28;20022;-66
2023/06/21 05:24:38;;;;;;;3.63;2.80;;;25.20;65.90;;;;;;5001288;28;20026;-66
2023/06/21 05:27:04;;;;;;;4.63;2.80;;;25.20;66.00;;;;;;5002488;28;20408;-65
2023/06/21 05:29:29;;;;;;;2.85;2.65;;;25.20;66.00;;;;;;4999562;28;20029;-65
2023/06/21 05:31:55;;;;;;;2.97;2.55;;;25.20;66.00;;;;;;5001858;28;20038;-66
2023/06/21 05:34:20;;;;;;;2.80;2.60;;;25.20;65.90;;;;;;5002922;28;20469;-64
2023/06/21 05:36:46;;;;;;;2.85;2.65;;;25.20;66.00;;;;;;4998281;28;20104;-66
2023/06/21 05:39:11;;;;;;;3.30;2.78;;;25.20;66.00;;;;;;5001681;28;20040;-65
2023/06/21 05:41:37;;;;;;;3.00;2.63;;;25.30;66.00;;;;;;5002608;28;20062;-65
2023/06/21 05:44:02;;;;;;;3.30;2.80;;;25.20;65.80;;;;;;4998665;28;20397;-66
2023/06/21 05:46:28;;;;;;;2.83;2.55;;;25.30;66.00;;;;;;4997358;28;20038;-66
2023/06/21 05:48:53;;;;;;;3.50;2.40;;;25.20;66.10;;;;;;5001193;28;20504;-66
2023/06/21 05:51:19;;;;;;;2.90;2.60;;;25.20;66.00;;;;;;5002849;28;20038;-66
2023/06/21 05:53:44;;;;;;;3.33;2.55;;;25.20;66.00;;;;;;5000713;28;20485;-66
2023/06/21 05:56:09;;;;;;;3.28;2.90;;;25.20;65.90;;;;;;5003573;28;20046;-67
2023/06/21 05:58:35;;;;;;;3.42;3.13;;;25.20;65.90;;;;;;5001323;28;20029;-67
2023/06/21 06:01:02;;;;;;;4.10;3.17;;;25.20;65.90;;;;;;5001270;28;20096;-66
2023/06/21 06:03:28;;;;;;;3.83;2.80;;;25.20;65.90;;;;;;5001523;28;20480;-65
2023/06/21 06:05:53;;;;;;;3.03;2.72;;;25.30;66.60;;;;;;4996335;28;20030;-67
2023/06/21 06:08:19;;;;;;;3.05;2.75;;;25.20;65.80;;;;;;5001698;28;20370;-68
2023/06/21 06:10:44;;;;;;;3.30;2.78;;;25.30;66.00;;;;;;5002228;28;20053;-67
2023/06/21 06:13:10;;;;;;;3.47;3.17;;;25.20;65.90;;;;;;5002769;28;20041;-68
2023/06/21 06:15:35;;;;;;;3.72;3.35;;;25.20;66.00;;;;;;5001738;28;20641;-67
2023/06/21 06:18:01;;;;;;;3.22;2.92;;;25.30;66.00;;;;;;5002387;28;20022;-67
2023/06/21 06:20:27;;;;;;;2.75;2.50;;;25.20;65.90;;;;;;5001444;28;20037;-65
2023/06/21 06:22:53;;;;;;;4.22;3.20;;;25.20;65.90;;;;;;5001764;28;20230;-66
2023/06/21 06:25:18;;;;;;;3.85;3.25;;;25.20;65.90;;;;;;5003092;28;20049;-65
2023/06/21 06:27:44;;;;;;;3.47;3.10;;;25.20;65.70;;;;;;5001277;28;20063;-66
2023/06/21 06:30:11;;;;;;;3.72;3.17;;;25.20;65.70;;;;;;5006979;28;20128;-65
2023/06/21 06:32:36;;;;;;;5.40;3.25;;;25.20;65.80;;;;;;5005231;28;20045;-66
2023/06/21 06:35:02;;;;;;;4.15;3.03;;;25.20;65.90;;;;;;5006383;28;20669;-67
2023/06/21 06:37:28;;;;;;;5.25;3.83;;;25.20;65.80;;;;;;5004853;28;20030;-63
2023/06/21 06:39:54;;;;;;;4.35;3.70;;;25.20;65.80;;;;;;5005501;28;20039;-66
2023/06/21 06:42:20;;;;;;;4.30;3.90;;;25.20;65.80;;;;;;5002838;28;20038;-66
2023/06/21 06:44:46;;;;;;;5.70;3.92;;;25.20;65.80;;;;;;5004034;28;20099;-67
2023/06/21 06:47:13;;;;;;;5.55;3.78;;;25.30;65.90;;;;;;4998994;28;20038;-66
2023/06/21 06:49:38;;;;;;;3.92;3.53;;;25.20;65.90;;;;;;5006628;28;20121;-64
2023/06/21 06:52:05;;;;;;;4.82;4.00;;;25.20;65.70;;;;;;5007187;28;20090;-67
2023/06/21 06:54:30;;;;;;;3.90;3.60;;;25.20;65.70;;;;;;5007193;28;20030;-66
2023/06/21 06:56:56;;;;;;;4.00;3.60;;;25.20;65.70;;;;;;5004896;28;20025;-67
2023/06/21 06:59:22;;;;;;;3.80;3.50;;;25.20;65.80;;;;;;5006474;28;20125;-67
2023/06/21 07:01:48;;;;;;;4.35;3.83;;;25.20;65.60;;;;;;5005500;28;20034;-66
2023/06/21 07:04:14;;;;;;;4.15;3.72;;;25.20;65.60;;;;;;5003845;28;20065;-66
2023/06/21 07:06:40;;;;;;;3.45;3.15;;;25.20;65.40;;;;;;5008760;28;20460;-66
2023/06/21 07:09:06;;;;;;;4.22;3.83;;;25.20;65.60;;;;;;5008670;28;20026;-66
2023/06/21 07:11:32;;;;;;;4.25;3.83;;;25.20;65.60;;;;;;5003549;28;20392;-67
2023/06/21 07:13:57;;;;;;;5.20;3.88;;;25.20;65.70;;;;;;5003638;28;20034;-65
2023/06/21 07:16:24;;;;;;;4.32;3.92;;;25.20;65.40;;;;;;5006641;28;20030;-66
2023/06/21 07:18:49;;;;;;;4.30;3.88;;;25.30;65.50;;;;;;5004851;28;20456;-66
2023/06/21 07:21:17;;;;;;;6.07;4.07;;;25.20;65.60;;;;;;5004694;28;20308;-64
2023/06/21 07:23:42;;;;;;;6.90;4.45;;;25.20;65.60;;;;;;5004178;28;20052;-66
2023/06/21 07:26:09;;;;;;;5.25;4.22;;;25.20;65.70;;;;;;5003852;28;20489;-66
2023/06/21 07:28:34;;;;;;;6.03;4.70;;;25.20;65.70;;;;;;5002266;28;20034;-66
2023/06/21 07:31:00;;;;;;;6.93;4.53;;;25.30;65.70;;;;;;5003849;28;20537;-66
2023/06/21 07:33:26;;;;;;;6.20;4.43;;;25.20;65.70;;;;;;5004724;28;20034;-66
2023/06/21 07:35:51;;;;;;;8.30;4.70;;;25.20;65.70;;;;;;4997721;28;20038;-66
2023/06/21 07:38:17;;;;;;;7.30;4.53;;;25.20;65.70;;;;;;5002175;28;20089;-66
2023/06/21 07:40:42;;;;;;;7.38;4.90;;;25.20;65.70;;;;;;5000598;28;20038;-67
2023/06/21 07:43:08;;;;;;;7.88;4.78;;;25.20;65.90;;;;;;5004025;28;20034;-66
2023/06/21 07:45:34;;;;;;;7.43;5.05;;;25.20;65.90;;;;;;5004824;28;20449;-66
2023/06/21 07:47:59;;;;;;;4.97;4.38;;;25.20;65.90;;;;;;5004131;28;20030;-66
2023/06/21 07:50:27;;;;;;;5.93;5.10;;;25.20;65.80;;;;;;5004357;28;20049;-70
2023/06/21 07:52:52;;;;;;;7.88;4.93;;;25.20;65.90;;;;;;5003443;28;20041;-67
2023/06/21 07:55:17;;;;;;;6.18;4.90;;;25.20;65.90;;;;;;5002078;28;20037;-66
2023/06/21 07:57:43;;;;;;;8.93;4.75;;;25.20;66.00;;;;;;5002959;28;20026;-66
2023/06/21 08:00:11;;;;;;;6.63;5.00;;;25.20;65.90;;;;;;5004441;28;20022;-67
2023/06/21 08:02:37;;;;;;;8.52;5.07;;;25.20;65.80;;;;;;4998753;28;20121;-67
2023/06/21 08:05:03;;;;;;;7.35;5.32;;;25.20;65.80;;;;;;5002822;28;20475;-65
2023/06/21 08:07:28;;;;;;;6.30;4.97;;;25.20;65.80;;;;;;4999103;28;20358;-66
2023/06/21 08:09:54;;;;;;;6.75;5.13;;;25.20;65.80;;;;;;5004065;28;20117;-66
2023/06/21 08:12:19;;;;;;;7.57;4.93;;;25.20;65.90;;;;;;5001303;28;20409;-66
2023/06/21 08:14:45;;;;;;;6.45;4.80;;;25.20;65.80;;;;;;5003570;28;20038;-67
2023/06/21 08:17:10;;;;;;;6.35;4.85;;;25.30;66.00;;;;;;5003532;28;20787;-66
2023/06/21 08:19:36;;;;;;;7.47;4.57;;;25.20;65.90;;;;;;5002005;28;20058;-66
2023/06/21 08:22:02;;;;;;;6.03;5.43;;;25.20;65.90;;;;;;5001872;28;20042;-66
2023/06/21 08:24:27;;;;;;;10.60;5.20;;;25.20;65.90;;;;;;5001866;28;20485;-64
2023/06/21 08:26:53;;;;;;;8.27;5.28;;;25.30;66.00;;;;;;5002038;28;20484;-67
2023/06/21 08:29:18;;;;;;;7.57;5.88;;;25.20;65.90;;;;;;5003827;28;20099;-67
2023/06/21 08:31:44;;;;;;;6.85;4.85;;;25.20;65.70;;;;;;4997255;28;20022;-67
2023/06/21 08:34:09;;;;;;;9.18;5.80;;;25.30;65.90;;;;;;4999159;28;20096;-67
2023/06/21 08:36:35;;;;;;;6.55;5.78;;;25.30;65.80;;;;;;5004249;28;20038;-68
2023/06/21 08:39:00;;;;;;;6.72;6.05;;;25.20;65.60;;;;;;5002265;28;20038;-67
2023/06/21 08:41:26;;;;;;;8.95;5.47;;;25.20;65.20;;;;;;5004768;28;20120;-68
2023/06/21 08:43:52;;;;;;;7.88;5.90;;;25.30;65.40;;;;;;5003273;28;20026;-66
2023/06/21 08:46:21;;;;;;;9.75;5.95;;;25.30;65.30;;;;;;5003562;28;20038;-68
2023/06/21 08:48:50;;;;;;;8.90;6.07;;;25.30;65.40;;;;;;5002207;28;20042;-68
2023/06/21 08:51:16;;;;;;;6.10;5.40;;;25.30;65.60;;;;;;5002079;28;20248;-67
2023/06/21 08:53:46;;;;;;;9.13;6.15;;;25.20;65.90;;;;;;4998234;28;20112;-66
2023/06/21 08:56:17;;;;;;;7.20;5.53;;;25.20;65.80;;;;;;5002506;28;20025;-66
2023/06/21 08:58:49;;;;;;;7.20;6.47;;;25.20;65.80;;;;;;5002962;28;20064;-66
2023/06/21 09:01:19;;;;;;;7.07;6.38;;;25.30;65.90;;;;;;4991965;28;20041;-68
2023/06/21 09:03:53;;;;;;;11.85;7.75;;;25.30;65.80;;;;;;5000555;28;20030;-67
2023/06/21 09:06:22;;;;;;;8.53;7.27;;;25.30;65.10;;;;;;5000385;28;20034;-66
2023/06/21 09:08:49;;;;;;;8.13;6.38;;;25.30;65.40;;;;;;5003381;28;20038;-66
2023/06/21 09:11:17;;;;;;;8.13;6.75;;;25.30;65.50;;;;;;5002960;28;20393;-67
2023/06/21 09:13:44;;;;;;;7.68;6.47;;;25.30;65.50;;;;;;5003058;28;20524;-67
2023/06/21 09:16:11;;;;;;;7.85;6.97;;;25.30;65.60;;;;;;5004419;28;20117;-67
2023/06/21 09:18:39;;;;;;;9.68;7.00;;;25.30;65.40;;;;;;5003211;28;20077;-67
2023/06/21 09:21:08;;;;;;;8.68;6.50;;;25.30;65.20;;;;;;5000505;28;20496;-68
2023/06/21 09:23:34;;;;;;;7.20;6.40;;;25.30;65.30;;;;;;5001822;28;20054;-67
2023/06/21 09:26:00;;;;;;;9.63;6.40;;;25.30;65.00;;;;;;5001051;28;20072;-67
2023/06/21 09:28:25;;;;;;;8.15;6.43;;;25.30;65.50;;;;;;5001105;28;20469;-68
2023/06/21 09:30:51;;;;;;;9.02;6.57;;;25.30;65.60;;;;;;5003474;28;20022;-67
2023/06/21 09:33:17;;;;;;;8.68;6.45;;;25.30;65.70;;;;;;5003074;28;20026;-68
2023/06/21 09:35:43;;;;;;;8.20;6.40;;;25.30;65.60;;;;;;5006166;28;20084;-65
2023/06/21 09:38:28;;;;;;;7.18;6.45;;;25.30;65.60;;;;;;5006789;28;20030;-68
2023/06/21 09:40:54;;;;;;;7.30;6.60;;;25.30;65.40;;;;;;5004246;28;20080;-67
2023/06/21 09:43:21;;;;;;;8.40;6.35;;;25.30;65.60;;;;;;5008184;28;20049;-66
2023/06/21 09:45:59;;;;;;;8.75;6.13;;;25.30;65.60;;;;;;5007535;28;20049;-67
2023/06/21 09:48:25;;;;;;;7.68;6.90;;;25.30;65.90;;;;;;4997443;28;20026;-68
2023/06/21 09:50:53;;;;;;;9.93;7.53;;;25.30;65.50;;;;;;5006773;28;20018;-69
2023/06/21 09:53:24;;;;;;;9.18;6.60;;;25.30;65.40;;;;;;5005072;28;20072;-67
2023/06/21 09:55:50;;;;;;;11.57;7.03;;;25.30;65.70;;;;;;5002706;28;20026;-68
2023/06/21 09:58:16;;;;;;;10.23;6.93;;;25.30;65.80;;;;;;5000587;28;20100;-67
2023/06/21 10:00:42;;;;;;;9.77;7.07;;;25.30;65.70;;;;;;4999157;28;20113;-68
2023/06/21 10:03:09;;;;;;;10.45;6.97;;;25.30;65.10;;;;;;5005698;28;20049;-67
2023/06/21 10:05:34;;;;;;;9.38;8.13;;;25.30;65.80;;;;;;5006943;28;20080;-67
2023/06/21 10:08:03;;;;;;;9.43;7.55;;;25.30;64.60;;;;;;5005450;28;20026;-66
2023/06/21 10:10:32;;;;;;;8.85;7.82;;;25.30;64.50;;;;;;5006962;28;20126;-66
2023/06/21 10:12:58;;;;;;;8.57;7.80;;;25.30;63.70;;;;;;5004891;28;20392;-68
2023/06/21 10:15:23;;;;;;;8.88;7.97;;;25.30;63.00;;;;;;5006171;28;20343;-65
2023/06/21 10:17:49;;;;;;;8.93;7.45;;;25.30;63.60;;;;;;5005800;28;20111;-68
2023/06/21 10:20:15;;;;;;;10.40;7.97;;;25.30;63.60;;;;;;5004294;28;20030;-68
2023/06/21 10:22:43;;;;;;;8.90;7.35;;;25.30;63.70;;;;;;5004734;28;20033;-68
2023/06/21 10:25:10;;;;;;;8.35;7.45;;;25.30;64.00;;;;;;5004637;28;20025;-68
2023/06/21 10:27:39;;;;;;;8.10;7.30;;;25.30;64.00;;;;;;5001079;28;20034;-68
2023/06/21 10:30:06;;;;;;;11.18;7.22;;;25.40;64.00;;;;;;5003354;28;20065;-68
2023/06/21 10:32:34;;;;;;;8.52;7.72;;;25.40;64.00;;;;;;5005903;28;20084;-68
2023/06/21 10:35:17;;;;;;;8.00;7.00;;;25.30;64.00;;;;;;5005429;28;20038;-67
2023/06/21 10:38:14;;;;;;;7.00;6.40;;;25.30;63.90;;;;;;5005880;28;20097;-68
2023/06/21 10:40:41;;;;;;;8.85;7.05;;;25.40;64.00;;;;;;4991018;28;20041;-69
2023/06/21 10:43:08;;;;;;;8.95;7.10;;;25.40;64.20;;;;;;5003065;28;20526;-66
2023/06/21 10:45:34;;;;;;;8.20;7.30;;;25.30;64.40;;;;;;5004665;28;20084;-65
2023/06/21 10:48:00;;;;;;;8.82;7.53;;;25.40;64.40;;;;;;5003881;28;20042;-68
2023/06/21 10:50:26;;;;;;;9.05;7.70;;;25.40;64.20;;;;;;5003199;28;20050;-68
2023/06/21 10:52:57;;;;;;;8.80;7.15;;;25.40;64.10;;;;;;5004913;28;20080;-67
2023/06/21 10:55:22;;;;;;;8.63;7.72;;;25.40;63.30;;;;;;5005958;28;20133;-69
2023/06/21 10:57:52;;;;;;;8.45;7.60;;;25.40;63.50;;;;;;5002299;28;20030;-67
2023/06/21 11:00:19;;;;;;;8.50;7.70;;;25.40;63.70;;;;;;5001252;28;20109;-68
2023/06/21 11:02:45;;;;;;;10.13;8.13;;;25.40;63.00;;;;;;5003240;28;20029;-66
2023/06/21 11:05:15;;;;;;;7.90;7.10;;;25.40;62.90;;;;;;5006529;28;20026;-69
2023/06/21 11:08:01;;;;;;;9.23;7.13;;;25.40;63.00;;;;;;5004574;28;20057;-69
2023/06/21 11:10:50;;;;;;;7.25;6.57;;;25.40;63.20;;;;;;5006028;28;20419;-68
2023/06/21 11:13:32;;;;;;;7.15;6.38;;;25.40;63.50;;;;;;5004876;28;20030;-68
2023/06/21 11:16:09;;;;;;;9.35;8.32;;;25.40;63.90;;;;;;5005034;28;20037;-69
2023/06/21 11:18:34;;;;;;;8.93;7.28;;;25.40;63.70;;;;;;5001725;28;20026;-68
2023/06/21 11:21:05;;;;;;;8.68;7.10;;;25.50;63.90;;;;;;5005998;28;20037;-67
2023/06/21 11:23:31;;;;;;;9.75;7.63;;;25.50;63.80;;;;;;5006820;28;20030;-69
2023/06/21 11:26:02;;;;;;;9.25;8.27;;;25.50;63.40;;;;;;5003999;28;20409;-69
2023/06/21 11:28:32;;;;;;;9.05;8.00;;;25.50;63.20;;;;;;5003367;28;20033;-67
2023/06/21 11:31:03;;;;;;;8.18;7.38;;;25.50;63.40;;;;;;5004139;28;20053;-68
2023/06/21 11:33:30;;;;;;;10.32;7.97;;;25.50;63.50;;;;;;5004507;28;20110;-67
2023/06/21 11:36:03;;;;;;;8.35;7.10;;;25.50;63.60;;;;;;5002831;28;20040;-68
2023/06/21 11:38:29;;;;;;;11.25;7.55;;;25.50;63.70;;;;;;5001496;28;20026;-68
2023/06/21 11:40:56;;;;;;;8.63;7.50;;;25.50;63.70;;;;;;5004846;28;20326;-68
2023/06/21 11:43:21;;;;;;;10.20;8.10;;;25.50;63.70;;;;;;5004293;28;20026;-69
2023/06/21 11:46:03;;;;;;;9.13;7.80;;;25.50;63.60;;;;;;5002313;28;20168;-69
2023/06/21 11:48:29;;;;;;;9.15;8.02;;;25.50;63.60;;;;;;4998819;28;20033;-69
2023/06/21 11:50:56;;;;;;;9.15;7.72;;;25.50;63.70;;;;;;5004483;28;20603;-68
2023/06/21 11:53:26;;;;;;;8.82;7.05;;;25.50;63.70;;;;;;5004641;28;20076;-68
2023/06/21 11:55:56;;;;;;;8.75;7.95;;;25.50;63.60;;;;;;5003374;28;20111;-69
2023/06/21 11:58:23;;;;;;;10.90;8.73;;;25.60;63.70;;;;;;5000358;28;20032;-68
2023/06/21 12:00:48;;;;;;;10.63;8.55;;;25.50;63.60;;;;;;5001239;28;20030;-68
2023/06/21 12:03:15;;;;;;;9.30;7.70;;;25.50;64.20;;;;;;5003584;28;20040;-69
2023/06/21 12:05:47;;;;;;;8.48;7.63;;;25.50;63.40;;;;;;5003868;28;20022;-68
2023/06/21 12:08:12;;;;;;;9.60;8.60;;;25.50;63.60;;;;;;5004753;28;20740;-68
2023/06/21 12:10:38;;;;;;;8.70;7.90;;;25.50;63.60;;;;;;5003867;28;20030;-68
2023/06/21 12:13:05;;;;;;;9.13;8.20;;;25.50;63.40;;;;;;5002978;28;20045;-68
2023/06/21 12:15:31;;;;;;;8.15;7.35;;;25.50;63.30;;;;;;4996932;28;20030;-68
2023/06/21 12:17:56;;;;;;;8.25;7.45;;;25.50;63.30;;;;;;5002791;28;20420;-69
2023/06/21 12:20:22;;;;;;;8.68;7.88;;;25.50;63.20;;;;;;5003132;28;20140;-67
2023/06/21 12:22:48;;;;;;;8.15;7.25;;;25.60;62.90;;;;;;5000987;28;20423;-67
2023/06/21 12:25:13;;;;;;;7.65;6.95;;;25.60;62.90;;;;;;4998317;28;20058;-68
2023/06/21 12:27:56;;;;;;;8.30;7.43;;;25.60;62.70;;;;;;5003564;28;20504;-66
2023/06/21 12:30:25;;;;;;;9.77;7.50;;;25.60;62.90;;;;;;5001605;28;20052;-70
2023/06/21 12:32:51;;;;;;;7.90;7.10;;;25.60;62.90;;;;;;5002212;28;20310;-68
2023/06/21 12:35:20;;;;;;;8.88;7.18;;;25.60;62.80;;;;;;5003404;28;20049;-68
2023/06/21 12:37:46;;;;;;;7.50;6.70;;;25.60;62.70;;;;;;5001487;28;20034;-68
2023/06/21 12:40:16;;;;;;;7.63;6.93;;;25.60;62.50;;;;;;5002656;28;20038;-68
2023/06/21 12:42:44;;;;;;;8.10;6.43;;;25.60;62.90;;;;;;5000000;28;20034;-69
2023/06/21 12:45:12;;;;;;;7.20;6.32;;;25.60;63.00;;;;;;5002104;28;20034;-69
2023/06/21 12:47:41;;;;;;;7.93;6.85;;;25.70;63.00;;;;;;5000539;28;20038;-68